sensor_id;sensor_type;location;lat;lon;timestamp;P1;durP1;ratioP1;P2;durP2;ratioP2
84521;SDS011;74758;50.066;20.008;2024-01-10T00:00:28;107.20;;;42.30;;
84521;SDS011;74758;50.066;20.008;2024-01-10T00:02:30;104.20;;;44.20;;
84521;SDS011;74758;50.066;20.008;2024-01-10T00:04:32;100.40;;;41.70;;
84521;SDS011;74758;50.066;20.008;2024-01-10T00:06:34;91.80;;;39.40;;
84521;SDS011;74758;50.066;20.008;2024-01-10T00:08:35;103.70;;;41.40;;
84521;SDS011;74758;50.066;20.008;2024-01-10T00:10:37;106.20;;;41.10;;
84521;SDS011;74758;50.066;20.008;2024-01-10T00:12:40;98.20;;;41.00;;
84521;SDS011;74758;50.066;20.008;2024-01-10T00:14:41;97.50;;;41.00;;
84521;SDS011;74758;50.066;20.008;2024-01-10T00:16:43;90.40;;;40.90;;
84521;SDS011;74758;50.066;20.008;2024-01-10T00:18:45;88.20;;;39.70;;
84521;SDS011;74758;50.066;20.008;2024-01-10T00:20:47;104.70;;;42.20;;
84521;SDS011;74758;50.066;20.008;2024-01-10T00:22:49;89.90;;;39.40;;
84521;SDS011;74758;50.066;20.008;2024-01-10T00:24:50;99.30;;;43.60;;
84521;SDS011;74758;50.066;20.008;2024-01-10T00:26:52;102.50;;;40.30;;
84521;SDS011;74758;50.066;20.008;2024-01-10T00:28:54;100.60;;;42.00;;
84521;SDS011;74758;50.066;20.008;2024-01-10T00:31:05;109.90;;;45.30;;
84521;SDS011;74758;50.066;20.008;2024-01-10T00:33:06;100.60;;;42.00;;
84521;SDS011;74758;50.066;20.008;2024-01-10T00:35:08;108.30;;;43.00;;
84521;SDS011;74758;50.066;20.008;2024-01-10T00:37:10;107.40;;;42.90;;
84521;SDS011;74758;50.066;20.008;2024-01-10T00:39:12;101.80;;;40.10;;
84521;SDS011;74758;50.066;20.008;2024-01-10T00:41:13;108.10;;;42.60;;
84521;SDS011;74758;50.066;20.008;2024-01-10T00:43:15;102.20;;;43.00;;
84521;SDS011;74758;50.066;20.008;2024-01-10T00:45:17;104.30;;;46.60;;
84521;SDS011;74758;50.066;20.008;2024-01-10T00:47:18;107.30;;;42.30;;
84521;SDS011;74758;50.066;20.008;2024-01-10T00:49:20;107.40;;;44.10;;
84521;SDS011;74758;50.066;20.008;2024-01-10T00:51:22;108.90;;;44.80;;
84521;SDS011;74758;50.066;20.008;2024-01-10T00:53:24;108.60;;;48.80;;
84521;SDS011;74758;50.066;20.008;2024-01-10T00:55:26;112.70;;;44.90;;
84521;SDS011;74758;50.066;20.008;2024-01-10T00:57:27;101.30;;;42.90;;
84521;SDS011;74758;50.066;20.008;2024-01-10T00:59:29;108.50;;;43.70;;
84521;SDS011;74758;50.066;20.008;2024-01-10T01:01:30;104.30;;;47.10;;
84521;SDS011;74758;50.066;20.008;2024-01-10T01:03:32;111.60;;;42.60;;
84521;SDS011;74758;50.066;20.008;2024-01-10T01:05:34;119.00;;;43.70;;
84521;SDS011;74758;50.066;20.008;2024-01-10T01:07:36;86.60;;;38.00;;
84521;SDS011;74758;50.066;20.008;2024-01-10T01:09:38;97.20;;;40.10;;
84521;SDS011;74758;50.066;20.008;2024-01-10T01:11:40;99.40;;;43.10;;
84521;SDS011;74758;50.066;20.008;2024-01-10T01:13:42;90.20;;;42.70;;
84521;SDS011;74758;50.066;20.008;2024-01-10T01:15:44;96.20;;;40.40;;
84521;SDS011;74758;50.066;20.008;2024-01-10T01:17:46;98.30;;;43.50;;
84521;SDS011;74758;50.066;20.008;2024-01-10T01:19:48;106.10;;;40.60;;
84521;SDS011;74758;50.066;20.008;2024-01-10T01:21:50;112.20;;;46.30;;
84521;SDS011;74758;50.066;20.008;2024-01-10T01:23:51;108.80;;;44.00;;
84521;SDS011;74758;50.066;20.008;2024-01-10T01:25:53;104.30;;;43.20;;
84521;SDS011;74758;50.066;20.008;2024-01-10T01:27:55;105.00;;;41.80;;
84521;SDS011;74758;50.066;20.008;2024-01-10T01:29:57;108.40;;;42.40;;
84521;SDS011;74758;50.066;20.008;2024-01-10T01:31:58;95.50;;;42.30;;
84521;SDS011;74758;50.066;20.008;2024-01-10T01:34:00;108.80;;;41.40;;
84521;SDS011;74758;50.066;20.008;2024-01-10T01:36:02;93.20;;;43.00;;
84521;SDS011;74758;50.066;20.008;2024-01-10T01:38:04;97.10;;;41.80;;
84521;SDS011;74758;50.066;20.008;2024-01-10T01:40:06;99.70;;;40.60;;
84521;SDS011;74758;50.066;20.008;2024-01-10T01:42:08;108.60;;;42.40;;
84521;SDS011;74758;50.066;20.008;2024-01-10T01:44:10;104.30;;;43.40;;
84521;SDS011;74758;50.066;20.008;2024-01-10T01:46:11;110.90;;;40.90;;
84521;SDS011;74758;50.066;20.008;2024-01-10T01:48:14;100.60;;;41.60;;
84521;SDS011;74758;50.066;20.008;2024-01-10T01:50:15;104.80;;;45.50;;
84521;SDS011;74758;50.066;20.008;2024-01-10T01:52:18;98.80;;;42.20;;
84521;SDS011;74758;50.066;20.008;2024-01-10T01:54:19;105.10;;;42.10;;
84521;SDS011;74758;50.066;20.008;2024-01-10T01:56:22;102.70;;;39.40;;
84521;SDS011;74758;50.066;20.008;2024-01-10T01:58:25;104.00;;;39.70;;
84521;SDS011;74758;50.066;20.008;2024-01-10T02:00:26;100.20;;;42.00;;
84521;SDS011;74758;50.066;20.008;2024-01-10T02:02:28;96.90;;;43.60;;
84521;SDS011;74758;50.066;20.008;2024-01-10T02:04:32;104.00;;;43.50;;
84521;SDS011;74758;50.066;20.008;2024-01-10T02:06:34;103.20;;;41.30;;
84521;SDS011;74758;50.066;20.008;2024-01-10T02:08:36;98.20;;;46.00;;
84521;SDS011;74758;50.066;20.008;2024-01-10T02:10:38;104.70;;;42.70;;
84521;SDS011;74758;50.066;20.008;2024-01-10T02:12:40;111.20;;;43.70;;
84521;SDS011;74758;50.066;20.008;2024-01-10T02:14:42;112.20;;;46.50;;
84521;SDS011;74758;50.066;20.008;2024-01-10T02:16:44;110.00;;;47.30;;
84521;SDS011;74758;50.066;20.008;2024-01-10T02:18:46;108.30;;;44.40;;
84521;SDS011;74758;50.066;20.008;2024-01-10T02:20:49;100.40;;;42.40;;
84521;SDS011;74758;50.066;20.008;2024-01-10T02:22:51;108.10;;;44.30;;
84521;SDS011;74758;50.066;20.008;2024-01-10T02:24:53;109.70;;;44.50;;
84521;SDS011;74758;50.066;20.008;2024-01-10T02:26:55;108.40;;;43.50;;
84521;SDS011;74758;50.066;20.008;2024-01-10T02:28:57;100.90;;;43.90;;
84521;SDS011;74758;50.066;20.008;2024-01-10T02:30:59;111.60;;;44.10;;
84521;SDS011;74758;50.066;20.008;2024-01-10T02:33:01;106.00;;;43.20;;
84521;SDS011;74758;50.066;20.008;2024-01-10T02:35:04;101.90;;;43.90;;
84521;SDS011;74758;50.066;20.008;2024-01-10T02:37:06;95.90;;;39.40;;
84521;SDS011;74758;50.066;20.008;2024-01-10T02:39:08;98.00;;;42.30;;
84521;SDS011;74758;50.066;20.008;2024-01-10T02:41:09;96.80;;;40.20;;
84521;SDS011;74758;50.066;20.008;2024-01-10T02:43:11;108.90;;;43.00;;
84521;SDS011;74758;50.066;20.008;2024-01-10T02:45:13;98.70;;;44.60;;
84521;SDS011;74758;50.066;20.008;2024-01-10T02:47:14;98.40;;;40.00;;
84521;SDS011;74758;50.066;20.008;2024-01-10T02:49:17;97.20;;;39.20;;
84521;SDS011;74758;50.066;20.008;2024-01-10T02:51:19;100.90;;;40.40;;
84521;SDS011;74758;50.066;20.008;2024-01-10T02:53:21;98.10;;;39.00;;
84521;SDS011;74758;50.066;20.008;2024-01-10T02:55:23;96.80;;;42.10;;
84521;SDS011;74758;50.066;20.008;2024-01-10T02:57:24;98.40;;;42.30;;
84521;SDS011;74758;50.066;20.008;2024-01-10T02:59:26;110.10;;;48.50;;
84521;SDS011;74758;50.066;20.008;2024-01-10T03:01:28;98.20;;;40.90;;
84521;SDS011;74758;50.066;20.008;2024-01-10T03:03:30;106.70;;;44.70;;
84521;SDS011;74758;50.066;20.008;2024-01-10T03:05:31;114.80;;;47.60;;
84521;SDS011;74758;50.066;20.008;2024-01-10T03:07:33;100.20;;;42.70;;
84521;SDS011;74758;50.066;20.008;2024-01-10T03:09:35;100.00;;;44.20;;
84521;SDS011;74758;50.066;20.008;2024-01-10T03:11:36;91.30;;;41.30;;
84521;SDS011;74758;50.066;20.008;2024-01-10T03:13:38;105.00;;;43.80;;
84521;SDS011;74758;50.066;20.008;2024-01-10T03:15:40;99.30;;;41.80;;
84521;SDS011;74758;50.066;20.008;2024-01-10T03:17:42;105.00;;;41.10;;
84521;SDS011;74758;50.066;20.008;2024-01-10T03:19:44;118.70;;;43.70;;
84521;SDS011;74758;50.066;20.008;2024-01-10T03:21:45;106.70;;;44.60;;
84521;SDS011;74758;50.066;20.008;2024-01-10T03:23:47;100.10;;;42.80;;
84521;SDS011;74758;50.066;20.008;2024-01-10T03:25:49;100.10;;;45.60;;
84521;SDS011;74758;50.066;20.008;2024-01-10T03:27:51;99.60;;;42.00;;
84521;SDS011;74758;50.066;20.008;2024-01-10T03:29:52;97.50;;;40.40;;
84521;SDS011;74758;50.066;20.008;2024-01-10T03:31:54;105.70;;;43.00;;
84521;SDS011;74758;50.066;20.008;2024-01-10T03:33:56;111.90;;;43.40;;
84521;SDS011;74758;50.066;20.008;2024-01-10T03:36:00;103.10;;;40.70;;
84521;SDS011;74758;50.066;20.008;2024-01-10T03:38:01;98.20;;;40.80;;
84521;SDS011;74758;50.066;20.008;2024-01-10T03:40:03;103.10;;;42.10;;
84521;SDS011;74758;50.066;20.008;2024-01-10T03:42:05;93.10;;;38.70;;
84521;SDS011;74758;50.066;20.008;2024-01-10T03:44:06;99.00;;;42.40;;
84521;SDS011;74758;50.066;20.008;2024-01-10T03:46:11;99.20;;;41.00;;
84521;SDS011;74758;50.066;20.008;2024-01-10T03:48:14;91.00;;;36.60;;
84521;SDS011;74758;50.066;20.008;2024-01-10T03:50:18;95.10;;;42.90;;
84521;SDS011;74758;50.066;20.008;2024-01-10T03:52:21;91.50;;;40.50;;
84521;SDS011;74758;50.066;20.008;2024-01-10T03:54:23;104.10;;;41.70;;
84521;SDS011;74758;50.066;20.008;2024-01-10T03:56:24;86.60;;;39.60;;
84521;SDS011;74758;50.066;20.008;2024-01-10T03:58:26;93.30;;;37.90;;
84521;SDS011;74758;50.066;20.008;2024-01-10T04:00:27;90.70;;;40.50;;
84521;SDS011;74758;50.066;20.008;2024-01-10T04:02:29;97.60;;;38.20;;
84521;SDS011;74758;50.066;20.008;2024-01-10T04:04:31;94.00;;;38.20;;
84521;SDS011;74758;50.066;20.008;2024-01-10T04:06:32;96.90;;;39.10;;
84521;SDS011;74758;50.066;20.008;2024-01-10T04:08:34;87.30;;;36.60;;
84521;SDS011;74758;50.066;20.008;2024-01-10T04:10:37;85.80;;;36.80;;
84521;SDS011;74758;50.066;20.008;2024-01-10T04:12:42;94.40;;;36.80;;
84521;SDS011;74758;50.066;20.008;2024-01-10T04:14:44;92.30;;;36.30;;
84521;SDS011;74758;50.066;20.008;2024-01-10T04:16:46;91.50;;;38.10;;
84521;SDS011;74758;50.066;20.008;2024-01-10T04:18:47;95.40;;;38.70;;
84521;SDS011;74758;50.066;20.008;2024-01-10T04:20:49;97.20;;;39.90;;
84521;SDS011;74758;50.066;20.008;2024-01-10T04:22:51;90.30;;;39.10;;
84521;SDS011;74758;50.066;20.008;2024-01-10T04:24:53;96.60;;;37.30;;
84521;SDS011;74758;50.066;20.008;2024-01-10T04:26:55;91.40;;;39.30;;
84521;SDS011;74758;50.066;20.008;2024-01-10T04:28:56;111.00;;;43.00;;
84521;SDS011;74758;50.066;20.008;2024-01-10T04:30:58;114.20;;;45.40;;
84521;SDS011;74758;50.066;20.008;2024-01-10T04:33:00;100.70;;;41.60;;
84521;SDS011;74758;50.066;20.008;2024-01-10T04:35:02;107.90;;;42.30;;
84521;SDS011;74758;50.066;20.008;2024-01-10T04:37:04;95.30;;;39.50;;
84521;SDS011;74758;50.066;20.008;2024-01-10T04:39:08;100.80;;;41.10;;
84521;SDS011;74758;50.066;20.008;2024-01-10T04:41:10;102.60;;;40.80;;
84521;SDS011;74758;50.066;20.008;2024-01-10T04:43:12;110.00;;;45.30;;
84521;SDS011;74758;50.066;20.008;2024-01-10T04:45:13;99.60;;;39.60;;
84521;SDS011;74758;50.066;20.008;2024-01-10T04:47:16;109.00;;;44.80;;
84521;SDS011;74758;50.066;20.008;2024-01-10T04:49:18;101.50;;;44.60;;
84521;SDS011;74758;50.066;20.008;2024-01-10T04:51:19;106.10;;;45.10;;
84521;SDS011;74758;50.066;20.008;2024-01-10T04:53:21;89.90;;;42.10;;
84521;SDS011;74758;50.066;20.008;2024-01-10T04:55:24;104.60;;;41.70;;
84521;SDS011;74758;50.066;20.008;2024-01-10T04:57:26;88.30;;;37.60;;
84521;SDS011;74758;50.066;20.008;2024-01-10T04:59:27;93.90;;;34.80;;
84521;SDS011;74758;50.066;20.008;2024-01-10T05:01:29;102.70;;;39.60;;
84521;SDS011;74758;50.066;20.008;2024-01-10T05:03:31;99.40;;;39.40;;
84521;SDS011;74758;50.066;20.008;2024-01-10T05:05:33;102.20;;;42.00;;
84521;SDS011;74758;50.066;20.008;2024-01-10T05:07:35;112.80;;;45.60;;
84521;SDS011;74758;50.066;20.008;2024-01-10T05:09:36;103.80;;;45.30;;
84521;SDS011;74758;50.066;20.008;2024-01-10T05:11:38;112.10;;;41.70;;
84521;SDS011;74758;50.066;20.008;2024-01-10T05:13:42;113.10;;;45.00;;
84521;SDS011;74758;50.066;20.008;2024-01-10T05:15:44;105.90;;;43.70;;
84521;SDS011;74758;50.066;20.008;2024-01-10T05:17:46;107.50;;;44.90;;
84521;SDS011;74758;50.066;20.008;2024-01-10T05:19:48;112.10;;;49.00;;
84521;SDS011;74758;50.066;20.008;2024-01-10T05:21:50;105.50;;;43.00;;
84521;SDS011;74758;50.066;20.008;2024-01-10T05:23:51;107.90;;;43.70;;
84521;SDS011;74758;50.066;20.008;2024-01-10T05:25:53;104.90;;;43.50;;
84521;SDS011;74758;50.066;20.008;2024-01-10T05:27:55;119.60;;;46.90;;
84521;SDS011;74758;50.066;20.008;2024-01-10T05:29:57;118.00;;;44.80;;
84521;SDS011;74758;50.066;20.008;2024-01-10T05:32:01;91.40;;;41.20;;
84521;SDS011;74758;50.066;20.008;2024-01-10T05:34:03;105.60;;;44.40;;
84521;SDS011;74758;50.066;20.008;2024-01-10T05:36:06;116.90;;;43.50;;
84521;SDS011;74758;50.066;20.008;2024-01-10T05:38:08;114.60;;;48.00;;
84521;SDS011;74758;50.066;20.008;2024-01-10T05:40:10;109.60;;;46.40;;
84521;SDS011;74758;50.066;20.008;2024-01-10T05:42:12;118.20;;;49.10;;
84521;SDS011;74758;50.066;20.008;2024-01-10T05:44:14;117.40;;;47.70;;
84521;SDS011;74758;50.066;20.008;2024-01-10T05:46:16;112.50;;;43.00;;
84521;SDS011;74758;50.066;20.008;2024-01-10T05:48:18;124.90;;;50.60;;
84521;SDS011;74758;50.066;20.008;2024-01-10T05:50:20;116.40;;;48.70;;
84521;SDS011;74758;50.066;20.008;2024-01-10T05:52:22;120.80;;;51.80;;
84521;SDS011;74758;50.066;20.008;2024-01-10T05:54:24;120.90;;;53.60;;
84521;SDS011;74758;50.066;20.008;2024-01-10T05:56:26;118.50;;;54.50;;
84521;SDS011;74758;50.066;20.008;2024-01-10T05:58:29;116.50;;;53.60;;
84521;SDS011;74758;50.066;20.008;2024-01-10T06:00:31;117.10;;;49.20;;
84521;SDS011;74758;50.066;20.008;2024-01-10T06:02:33;129.90;;;50.60;;
84521;SDS011;74758;50.066;20.008;2024-01-10T06:04:35;119.00;;;52.90;;
84521;SDS011;74758;50.066;20.008;2024-01-10T06:06:37;120.20;;;53.10;;
84521;SDS011;74758;50.066;20.008;2024-01-10T06:08:39;128.30;;;49.00;;
84521;SDS011;74758;50.066;20.008;2024-01-10T06:10:41;129.90;;;52.70;;
84521;SDS011;74758;50.066;20.008;2024-01-10T06:12:42;130.20;;;53.60;;
84521;SDS011;74758;50.066;20.008;2024-01-10T06:14:44;122.20;;;52.90;;
84521;SDS011;74758;50.066;20.008;2024-01-10T06:16:46;124.70;;;52.60;;
84521;SDS011;74758;50.066;20.008;2024-01-10T06:18:47;116.50;;;51.00;;
84521;SDS011;74758;50.066;20.008;2024-01-10T06:20:50;128.70;;;53.80;;
84521;SDS011;74758;50.066;20.008;2024-01-10T06:22:52;121.20;;;52.80;;
84521;SDS011;74758;50.066;20.008;2024-01-10T06:24:54;124.80;;;51.80;;
84521;SDS011;74758;50.066;20.008;2024-01-10T06:26:55;135.50;;;54.40;;
84521;SDS011;74758;50.066;20.008;2024-01-10T06:28:57;127.30;;;52.20;;
84521;SDS011;74758;50.066;20.008;2024-01-10T06:30:59;122.90;;;49.80;;
84521;SDS011;74758;50.066;20.008;2024-01-10T06:33:01;129.20;;;51.80;;
84521;SDS011;74758;50.066;20.008;2024-01-10T06:35:03;119.00;;;52.90;;
84521;SDS011;74758;50.066;20.008;2024-01-10T06:37:06;134.20;;;55.40;;
84521;SDS011;74758;50.066;20.008;2024-01-10T06:39:11;139.30;;;54.70;;
84521;SDS011;74758;50.066;20.008;2024-01-10T06:41:17;134.40;;;55.20;;
84521;SDS011;74758;50.066;20.008;2024-01-10T06:43:19;121.80;;;53.90;;
84521;SDS011;74758;50.066;20.008;2024-01-10T06:45:20;126.40;;;56.10;;
84521;SDS011;74758;50.066;20.008;2024-01-10T06:47:22;142.10;;;58.60;;
84521;SDS011;74758;50.066;20.008;2024-01-10T06:49:24;129.60;;;52.10;;
84521;SDS011;74758;50.066;20.008;2024-01-10T06:51:26;132.20;;;52.90;;
84521;SDS011;74758;50.066;20.008;2024-01-10T06:53:31;137.20;;;55.40;;
84521;SDS011;74758;50.066;20.008;2024-01-10T06:55:33;123.50;;;51.50;;
84521;SDS011;74758;50.066;20.008;2024-01-10T06:57:35;133.00;;;53.10;;
84521;SDS011;74758;50.066;20.008;2024-01-10T06:59:36;136.10;;;55.20;;
84521;SDS011;74758;50.066;20.008;2024-01-10T07:01:38;134.30;;;51.30;;
84521;SDS011;74758;50.066;20.008;2024-01-10T07:03:41;134.70;;;53.40;;
84521;SDS011;74758;50.066;20.008;2024-01-10T07:05:43;116.20;;;49.10;;
84521;SDS011;74758;50.066;20.008;2024-01-10T07:07:46;126.10;;;50.60;;
84521;SDS011;74758;50.066;20.008;2024-01-10T07:09:47;133.00;;;50.90;;
84521;SDS011;74758;50.066;20.008;2024-01-10T07:11:49;131.10;;;49.20;;
84521;SDS011;74758;50.066;20.008;2024-01-10T07:13:51;131.90;;;55.20;;
84521;SDS011;74758;50.066;20.008;2024-01-10T07:15:53;118.80;;;50.30;;
84521;SDS011;74758;50.066;20.008;2024-01-10T07:17:55;124.20;;;53.50;;
84521;SDS011;74758;50.066;20.008;2024-01-10T07:19:57;127.30;;;55.60;;
84521;SDS011;74758;50.066;20.008;2024-01-10T07:21:58;139.90;;;57.00;;
84521;SDS011;74758;50.066;20.008;2024-01-10T07:24:00;129.40;;;54.00;;
84521;SDS011;74758;50.066;20.008;2024-01-10T07:26:02;134.00;;;55.00;;
84521;SDS011;74758;50.066;20.008;2024-01-10T07:28:04;133.80;;;55.10;;
84521;SDS011;74758;50.066;20.008;2024-01-10T07:30:06;122.10;;;52.70;;
84521;SDS011;74758;50.066;20.008;2024-01-10T07:32:17;120.30;;;51.50;;
84521;SDS011;74758;50.066;20.008;2024-01-10T07:34:21;122.50;;;50.40;;
84521;SDS011;74758;50.066;20.008;2024-01-10T07:36:26;126.10;;;52.00;;
84521;SDS011;74758;50.066;20.008;2024-01-10T07:38:28;141.80;;;53.90;;
84521;SDS011;74758;50.066;20.008;2024-01-10T07:40:30;132.80;;;55.10;;
84521;SDS011;74758;50.066;20.008;2024-01-10T07:42:32;139.90;;;51.00;;
84521;SDS011;74758;50.066;20.008;2024-01-10T07:44:35;116.20;;;47.90;;
84521;SDS011;74758;50.066;20.008;2024-01-10T07:46:36;118.90;;;49.00;;
84521;SDS011;74758;50.066;20.008;2024-01-10T07:48:39;109.80;;;46.20;;
84521;SDS011;74758;50.066;20.008;2024-01-10T07:50:41;112.50;;;48.90;;
84521;SDS011;74758;50.066;20.008;2024-01-10T07:52:43;107.40;;;48.50;;
84521;SDS011;74758;50.066;20.008;2024-01-10T07:54:45;116.30;;;48.80;;
84521;SDS011;74758;50.066;20.008;2024-01-10T07:56:47;105.50;;;49.70;;
84521;SDS011;74758;50.066;20.008;2024-01-10T07:58:48;111.70;;;49.40;;
84521;SDS011;74758;50.066;20.008;2024-01-10T08:00:50;116.70;;;48.30;;
84521;SDS011;74758;50.066;20.008;2024-01-10T08:02:53;122.70;;;49.40;;
84521;SDS011;74758;50.066;20.008;2024-01-10T08:04:55;115.00;;;46.80;;
84521;SDS011;74758;50.066;20.008;2024-01-10T08:06:57;121.30;;;49.50;;
84521;SDS011;74758;50.066;20.008;2024-01-10T08:08:59;120.20;;;49.40;;
84521;SDS011;74758;50.066;20.008;2024-01-10T08:11:00;108.50;;;46.20;;
84521;SDS011;74758;50.066;20.008;2024-01-10T08:13:02;119.60;;;51.60;;
84521;SDS011;74758;50.066;20.008;2024-01-10T08:15:04;132.10;;;56.90;;
84521;SDS011;74758;50.066;20.008;2024-01-10T08:19:09;116.80;;;50.10;;
84521;SDS011;74758;50.066;20.008;2024-01-10T08:21:11;128.20;;;52.60;;
84521;SDS011;74758;50.066;20.008;2024-01-10T08:23:13;122.80;;;52.50;;
84521;SDS011;74758;50.066;20.008;2024-01-10T08:25:15;114.80;;;47.30;;
84521;SDS011;74758;50.066;20.008;2024-01-10T08:27:17;116.70;;;48.10;;
84521;SDS011;74758;50.066;20.008;2024-01-10T08:29:19;119.80;;;55.40;;
84521;SDS011;74758;50.066;20.008;2024-01-10T08:31:22;123.10;;;52.70;;
84521;SDS011;74758;50.066;20.008;2024-01-10T08:33:25;131.90;;;54.40;;
84521;SDS011;74758;50.066;20.008;2024-01-10T08:35:26;118.30;;;49.80;;
84521;SDS011;74758;50.066;20.008;2024-01-10T08:37:29;116.40;;;48.30;;
84521;SDS011;74758;50.066;20.008;2024-01-10T08:39:31;110.20;;;47.10;;
84521;SDS011;74758;50.066;20.008;2024-01-10T08:41:32;102.30;;;43.70;;
84521;SDS011;74758;50.066;20.008;2024-01-10T08:43:34;119.50;;;45.00;;
84521;SDS011;74758;50.066;20.008;2024-01-10T08:45:36;122.40;;;50.80;;
84521;SDS011;74758;50.066;20.008;2024-01-10T08:47:38;126.10;;;50.30;;
84521;SDS011;74758;50.066;20.008;2024-01-10T08:49:40;126.30;;;52.90;;
84521;SDS011;74758;50.066;20.008;2024-01-10T08:51:41;121.50;;;56.50;;
84521;SDS011;74758;50.066;20.008;2024-01-10T08:55:48;130.70;;;51.60;;
84521;SDS011;74758;50.066;20.008;2024-01-10T08:57:50;133.00;;;56.10;;
84521;SDS011;74758;50.066;20.008;2024-01-10T08:59:51;129.00;;;55.00;;
84521;SDS011;74758;50.066;20.008;2024-01-10T09:01:53;128.20;;;55.20;;
84521;SDS011;74758;50.066;20.008;2024-01-10T09:03:55;134.10;;;57.90;;
84521;SDS011;74758;50.066;20.008;2024-01-10T09:05:57;143.40;;;62.60;;
84521;SDS011;74758;50.066;20.008;2024-01-10T09:08:10;138.80;;;63.30;;
84521;SDS011;74758;50.066;20.008;2024-01-10T09:10:13;148.30;;;65.10;;
84521;SDS011;74758;50.066;20.008;2024-01-10T09:12:15;147.40;;;63.80;;
84521;SDS011;74758;50.066;20.008;2024-01-10T09:14:17;147.80;;;64.90;;
84521;SDS011;74758;50.066;20.008;2024-01-10T09:16:19;144.60;;;66.60;;
84521;SDS011;74758;50.066;20.008;2024-01-10T09:18:21;164.10;;;73.70;;
84521;SDS011;74758;50.066;20.008;2024-01-10T09:20:23;148.60;;;74.10;;
84521;SDS011;74758;50.066;20.008;2024-01-10T09:22:25;150.60;;;71.00;;
84521;SDS011;74758;50.066;20.008;2024-01-10T09:24:27;155.80;;;72.20;;
84521;SDS011;74758;50.066;20.008;2024-01-10T09:26:30;157.80;;;73.00;;
84521;SDS011;74758;50.066;20.008;2024-01-10T09:28:32;150.10;;;68.90;;
84521;SDS011;74758;50.066;20.008;2024-01-10T09:30:34;144.50;;;70.40;;
84521;SDS011;74758;50.066;20.008;2024-01-10T09:32:37;156.50;;;72.50;;
84521;SDS011;74758;50.066;20.008;2024-01-10T09:34:39;157.80;;;75.80;;
84521;SDS011;74758;50.066;20.008;2024-01-10T09:36:41;154.80;;;76.10;;
84521;SDS011;74758;50.066;20.008;2024-01-10T09:38:43;158.40;;;74.70;;
84521;SDS011;74758;50.066;20.008;2024-01-10T09:40:45;161.10;;;86.40;;
84521;SDS011;74758;50.066;20.008;2024-01-10T09:42:50;163.80;;;82.30;;
84521;SDS011;74758;50.066;20.008;2024-01-10T09:44:52;168.50;;;81.30;;
84521;SDS011;74758;50.066;20.008;2024-01-10T09:46:54;168.30;;;80.10;;
84521;SDS011;74758;50.066;20.008;2024-01-10T09:48:57;159.50;;;79.50;;
84521;SDS011;74758;50.066;20.008;2024-01-10T09:51:02;165.40;;;82.60;;
84521;SDS011;74758;50.066;20.008;2024-01-10T09:53:07;168.50;;;84.20;;
84521;SDS011;74758;50.066;20.008;2024-01-10T09:55:20;165.50;;;81.10;;
84521;SDS011;74758;50.066;20.008;2024-01-10T09:57:26;162.60;;;79.40;;
84521;SDS011;74758;50.066;20.008;2024-01-10T09:59:28;149.90;;;75.20;;
84521;SDS011;74758;50.066;20.008;2024-01-10T10:01:30;154.80;;;74.10;;
84521;SDS011;74758;50.066;20.008;2024-01-10T10:03:34;157.60;;;73.60;;
84521;SDS011;74758;50.066;20.008;2024-01-10T10:05:39;157.20;;;76.50;;
84521;SDS011;74758;50.066;20.008;2024-01-10T10:07:44;155.50;;;76.80;;
84521;SDS011;74758;50.066;20.008;2024-01-10T10:09:51;143.40;;;71.90;;
84521;SDS011;74758;50.066;20.008;2024-01-10T10:11:55;147.80;;;70.70;;
84521;SDS011;74758;50.066;20.008;2024-01-10T10:13:56;151.60;;;74.90;;
84521;SDS011;74758;50.066;20.008;2024-01-10T10:16:01;145.20;;;68.10;;
84521;SDS011;74758;50.066;20.008;2024-01-10T10:18:04;147.20;;;70.80;;
84521;SDS011;74758;50.066;20.008;2024-01-10T10:20:06;135.00;;;68.70;;
84521;SDS011;74758;50.066;20.008;2024-01-10T10:22:08;126.20;;;68.40;;
84521;SDS011;74758;50.066;20.008;2024-01-10T10:24:11;141.40;;;71.10;;
84521;SDS011;74758;50.066;20.008;2024-01-10T10:26:18;153.80;;;79.70;;
84521;SDS011;74758;50.066;20.008;2024-01-10T10:28:28;153.10;;;79.10;;
84521;SDS011;74758;50.066;20.008;2024-01-10T10:30:32;147.30;;;76.80;;
84521;SDS011;74758;50.066;20.008;2024-01-10T10:34:37;139.50;;;72.70;;
84521;SDS011;74758;50.066;20.008;2024-01-10T10:36:39;151.50;;;76.80;;
84521;SDS011;74758;50.066;20.008;2024-01-10T10:38:43;136.70;;;72.90;;
84521;SDS011;74758;50.066;20.008;2024-01-10T10:40:45;152.40;;;76.40;;
84521;SDS011;74758;50.066;20.008;2024-01-10T10:42:48;148.90;;;75.80;;
84521;SDS011;74758;50.066;20.008;2024-01-10T10:45:02;139.40;;;70.20;;
84521;SDS011;74758;50.066;20.008;2024-01-10T10:47:04;139.30;;;70.50;;
84521;SDS011;74758;50.066;20.008;2024-01-10T10:51:24;133.50;;;71.50;;
84521;SDS011;74758;50.066;20.008;2024-01-10T10:53:36;141.40;;;74.80;;
84521;SDS011;74758;50.066;20.008;2024-01-10T10:55:39;140.10;;;70.20;;
84521;SDS011;74758;50.066;20.008;2024-01-10T10:57:47;147.80;;;73.60;;
84521;SDS011;74758;50.066;20.008;2024-01-10T11:00:05;143.70;;;75.80;;
84521;SDS011;74758;50.066;20.008;2024-01-10T11:02:09;140.80;;;72.40;;
84521;SDS011;74758;50.066;20.008;2024-01-10T11:04:12;130.90;;;68.90;;
84521;SDS011;74758;50.066;20.008;2024-01-10T11:06:15;140.70;;;75.00;;
84521;SDS011;74758;50.066;20.008;2024-01-10T11:08:19;127.40;;;65.60;;
84521;SDS011;74758;50.066;20.008;2024-01-10T11:10:29;136.50;;;68.60;;
84521;SDS011;74758;50.066;20.008;2024-01-10T11:15:14;126.40;;;66.50;;
84521;SDS011;74758;50.066;20.008;2024-01-10T11:17:29;120.30;;;62.10;;
84521;SDS011;74758;50.066;20.008;2024-01-10T11:24:17;107.60;;;58.00;;
84521;SDS011;74758;50.066;20.008;2024-01-10T11:26:21;106.80;;;55.40;;
84521;SDS011;74758;50.066;20.008;2024-01-10T11:28:25;109.00;;;59.00;;
84521;SDS011;74758;50.066;20.008;2024-01-10T11:31:09;117.40;;;63.50;;
84521;SDS011;74758;50.066;20.008;2024-01-10T11:32:56;116.60;;;59.90;;
84521;SDS011;74758;50.066;20.008;2024-01-10T11:35:04;117.30;;;59.40;;
84521;SDS011;74758;50.066;20.008;2024-01-10T11:37:12;109.80;;;55.50;;
84521;SDS011;74758;50.066;20.008;2024-01-10T11:39:14;109.80;;;54.70;;
84521;SDS011;74758;50.066;20.008;2024-01-10T11:41:27;106.90;;;51.40;;
84521;SDS011;74758;50.066;20.008;2024-01-10T11:43:29;100.80;;;53.20;;
84521;SDS011;74758;50.066;20.008;2024-01-10T11:47:41;108.50;;;55.90;;
84521;SDS011;74758;50.066;20.008;2024-01-10T11:49:56;103.50;;;51.10;;
84521;SDS011;74758;50.066;20.008;2024-01-10T11:51:59;106.00;;;55.80;;
84521;SDS011;74758;50.066;20.008;2024-01-10T11:54:02;101.80;;;51.80;;
84521;SDS011;74758;50.066;20.008;2024-01-10T11:56:14;109.20;;;57.20;;